Aérodrome :
LOGIN :

S'inscrire | Disclaimer

   EN    FR    IT 

 










Légende :    VFR   VFR Marginal   IFR   IFR Intensif   IFR Très Intensif
Visi : 
Plafond : 
>= 8 km
>= 3000ft
5 à 8 km
1000 à 3000 ft
1500m à 5 km
500 à 1000 ft
800 à 1500m
200 à 500 ft
< 800m
< 200 ft
Symboles :   Orages  Brouillard  Fortes neiges  Fortes précipitations  Vent > 20 kt
SIGMETs :   Divers  Orages  Givrage  Turbulence  Onde Orograph.  Cendres Volcan.






- Altitude de l'aérodrome : 257 ft
- Code IATA : MAN


EGCC - Manchester

DERNIER METAR :
  • 300720Z AUTO 21005KT 4600 RA BKN010 08/08 Q1023 TEMPO 7000 -RA

METARs EXPIRÉS :
  • 300650Z AUTO 21005KT 4000 RA BKN015 BKN025 08/08 Q1023 TEMPO 8000
  • 300620Z AUTO 20005KT 4000 BR BKN021 OVC030 08/08 Q1023 TEMPO 8000 RA
  • 300550Z AUTO 22005KT 3400 BR FEW008 OVC016 08/08 Q1024 BECMG 8000
  • 300520Z AUTO 23007KT 3000 BR BKN006 OVC031 08/08 Q1024 BECMG 6000 BKN010
  • 300450Z AUTO 22005KT 180V240 2500 BR BKN006 BKN009 OVC034 08/08 Q1024 BECMG 6000 BKN010

TAF AMD TAF EGCC
Valide du 30 à 06h jusqu'au 01 à 12h UTC


300655Z 3006/0112 25005KT 3000 BR BKN004
BECMG 3006/3009 9999 NSW SCT020
TEMPO 3006/3016 4000 RA BKN008
BECMG 3009/3012 26015KT
PROB40
TEMPO 3012/3018 27015G25KT
BECMG 3015/3018 34010KT
TEMPO 3016/3018 7000 SHRA BKN014
PROB40
TEMPO 3018/3020 34015G25KT
ATIS : +44 161 499 2324



MET'MAP, la Météo Aéronautique d'un coup d'oeil ! - Copyright ORBIFLY Décembre 2007 - Disclaimer

ORBIFLY MET'MAP TEAM :

Programmation & Développement : Alexandra Zaïnal
Sur une idée originale de : Baudouin d'Aumeries
Assistance à la programmation : Marc-Olivier Méhu
Soutien technique & logistique : Manuel Goepfert

Contact : metmap@orbifly.com




SOURCES & CREDITS :

   NOAA